Time;durP1;ratioP1;P1;durP2;ratioP2;P2;SDS_P1;SDS_P2;PMS_P1;PMS_P2;Temp;Humidity;BMP_temperature;BMP_pressure;BME280_temperature;BME280_humidity;BME280_pressure;Samples;Min_cycle;Max_cycle;Signal;HPM_P1;HPM_P2
2022/04/10 00:00:10;;;;;;;17.67;7.43;;;;;;;4.35;76.79;99676.42;1442284;89;22027;-80
2022/04/10 00:02:37;;;;;;;12.43;7.50;;;;;;;4.33;77.03;99678.33;1453569;90;21332;-79
2022/04/10 00:05:05;;;;;;;15.00;8.13;;;;;;;4.28;77.11;99690.97;1449443;89;23131;-79
2022/04/10 00:07:32;;;;;;;14.17;8.23;;;;;;;4.28;76.94;99690.97;1442929;89;23153;-79
2022/04/10 00:09:58;;;;;;;15.77;8.60;;;;;;;4.27;76.79;99691.94;1452293;90;22011;-79
2022/04/10 00:12:26;;;;;;;18.17;9.10;;;;;;;4.21;76.83;99694.58;1449614;90;23079;-79
2022/04/10 00:14:53;;;;;;;15.23;8.27;;;;;;;4.23;76.89;99701.84;1450224;90;22024;-79
2022/04/10 00:17:19;;;;;;;13.40;8.40;;;;;;;4.23;77.11;99707.08;1443392;89;24029;-80
2022/04/10 00:19:47;;;;;;;20.67;8.20;;;;;;;4.13;77.34;99702.22;1441857;90;22051;-80
2022/04/10 00:22:14;;;;;;;13.57;8.50;;;;;;;4.17;77.50;99706.72;1451544;90;23139;-80
2022/04/10 00:24:41;;;;;;;13.33;7.87;;;;;;;4.12;77.19;99701.88;1451620;89;23064;-80
2022/04/10 00:27:07;;;;;;;15.83;9.00;;;;;;;4.13;77.34;99702.22;1446343;89;22960;-79
2022/04/10 00:29:34;;;;;;;15.10;9.17;;;;;;;4.12;77.73;99699.25;1444054;89;21992;-79
2022/04/10 00:32:01;;;;;;;17.43;8.73;;;;;;;4.10;77.53;99689.37;1451707;90;23571;-78
2022/04/10 00:34:28;;;;;;;12.80;7.60;;;;;;;4.11;77.58;99694.13;1442545;89;22487;-78
2022/04/10 00:36:55;;;;;;;14.57;8.40;;;;;;;4.09;77.76;99699.98;1457678;90;22006;-79
2022/04/10 00:39:22;;;;;;;14.30;8.77;;;;;;;4.06;77.73;99700.58;1451441;89;21999;-78
2022/04/10 00:41:49;;;;;;;16.13;8.53;;;;;;;4.05;77.91;99697.59;1441290;90;22131;-78
2022/04/10 00:44:16;;;;;;;14.83;8.77;;;;;;;4.09;77.92;99696.06;1443970;89;22054;-78
2022/04/10 00:46:43;;;;;;;12.10;6.93;;;;;;;4.09;77.91;99695.58;1446844;89;22102;-80
2022/04/10 00:49:10;;;;;;;15.73;9.23;;;;;;;4.05;77.99;99696.28;1451995;90;22896;-80
2022/04/10 00:51:41;;;;;;;22.40;8.53;;;;;;;4.02;78.53;99697.84;1439910;90;22138;-80
2022/04/10 00:54:17;;;;;;;31.70;10.38;;;;;;;4.01;78.42;99697.49;1390543;91;23072;-80
2022/04/10 00:56:45;;;;;;;15.17;7.67;;;;;;;4.04;78.44;99699.03;1431013;91;21848;-80
2022/04/10 00:59:13;;;;;;;13.97;9.70;;;;;;;4.02;78.28;99708.31;1426288;91;22100;-80
2022/04/10 01:01:44;;;;;;;14.93;9.27;;;;;;;4.07;78.35;99711.87;1421584;91;22019;-81
2022/04/10 01:04:16;;;;;;;18.53;8.13;;;;;;;4.08;78.03;99725.31;1421969;91;22079;-80
2022/04/10 01:06:45;;;;;;;20.57;9.53;;;;;;;4.11;78.08;99717.70;1419326;91;22057;-81
2022/04/10 01:09:12;;;;;;;22.83;10.40;;;;;;;4.09;77.27;99712.59;1426115;91;22123;-80
2022/04/10 01:11:39;;;;;;;18.33;8.17;;;;;;;4.04;77.48;99694.63;1427759;91;22157;-80
2022/04/10 01:14:08;;;;;;;16.90;8.57;;;;;;;4.06;77.46;99696.66;1424420;91;22200;-80
2022/04/10 01:16:36;;;;;;;15.53;7.50;;;;;;;4.06;77.34;99703.20;1431620;91;22116;-80
2022/04/10 01:19:04;;;;;;;12.97;6.87;;;;;;;4.02;76.61;99704.86;1418085;91;22197;-80
2022/04/10 01:21:35;;;;;;;14.57;7.90;;;;;;;4.01;76.43;99710.59;1434625;91;22004;-79
2022/04/10 01:24:05;;;;;;;17.00;7.58;;;;;;;4.02;76.24;99714.03;1457059;89;22219;-79
2022/04/10 01:26:32;;;;;;;12.73;6.87;;;;;;;4.10;76.15;99718.66;1459187;89;21327;-79
2022/04/10 01:29:09;;;;;;;14.33;7.57;;;;;;;4.10;76.15;99718.66;1457304;89;22221;-80
2022/04/10 01:31:40;;;;;;;20.57;8.77;;;;;;;4.14;76.06;99731.85;1452449;89;22019;-80
2022/04/10 01:34:10;;;;;;;15.50;7.00;;;;;;;4.19;76.10;99731.01;1452867;88;22102;-80
2022/04/10 01:36:37;;;;;;;20.33;8.20;;;;;;;4.14;75.71;99734.47;1438278;89;23981;-80
2022/04/10 01:39:07;;;;;;;11.50;7.43;;;;;;;4.09;75.45;99732.23;1439382;89;22176;-80
2022/04/10 01:41:35;;;;;;;16.23;7.73;;;;;;;4.11;75.23;99721.63;1467269;89;22193;-79
2022/04/10 01:44:06;;;;;;;16.80;8.03;;;;;;;4.12;75.37;99715.45;1462717;89;22086;-78
2022/04/10 01:46:34;;;;;;;12.50;6.12;;;;;;;4.07;75.30;99709.27;1452795;89;22952;-80
2022/04/10 01:49:03;;;;;;;29.50;10.23;;;;;;;4.07;75.21;99707.47;1454785;89;21341;-79
2022/04/10 01:51:30;;;;;;;16.43;7.70;;;;;;;4.08;75.33;99708.30;1451076;89;22080;-80
2022/04/10 01:53:59;;;;;;;12.97;7.83;;;;;;;4.02;75.13;99707.00;1458226;89;23056;-79
2022/04/10 01:56:26;;;;;;;13.10;6.90;;;;;;;4.05;75.33;99717.23;1451637;89;22101;-79
2022/04/10 01:58:53;;;;;;;19.67;8.63;;;;;;;4.06;75.16;99712.84;1456023;89;23082;-79
2022/04/10 02:01:22;;;;;;;14.83;8.37;;;;;;;4.06;75.45;99717.60;1461440;89;22332;-78
2022/04/10 02:03:52;;;;;;;15.47;7.43;;;;;;;4.06;74.76;99720.22;1454215;89;22117;-79
2022/04/10 02:06:20;;;;;;;16.77;7.23;;;;;;;4.07;74.65;99714.02;1456197;89;22102;-80
2022/04/10 02:08:47;;;;;;;17.87;8.20;;;;;;;4.10;74.40;99712.94;1431209;89;22071;-81
2022/04/10 02:11:18;;;;;;;14.97;7.57;;;;;;;4.12;73.79;99720.69;1451903;89;22066;-80
2022/04/10 02:13:47;;;;;;;12.30;7.27;;;;;;;4.16;73.21;99715.55;1459360;89;23025;-81
2022/04/10 02:16:17;;;;;;;16.10;8.10;;;;;;;4.22;73.05;99709.81;1461362;89;23164;-80
2022/04/10 02:18:46;;;;;;;12.97;6.27;;;;;;;4.27;73.22;99717.64;1454416;89;23526;-81
2022/04/10 02:21:13;;;;;;;13.23;7.23;;;;;;;4.30;73.18;99720.50;1455999;89;22057;-81
2022/04/10 02:23:41;;;;;;;15.00;6.70;;;;;;;4.28;73.24;99717.33;1451617;88;22110;-80
2022/04/10 02:26:12;;;;;;;13.00;6.90;;;;;;;4.21;73.41;99717.33;1452288;89;22103;-81
2022/04/10 02:28:40;;;;;;;16.57;8.53;;;;;;;4.24;73.79;99724.93;1451101;89;22034;-81
2022/04/10 02:31:08;;;;;;;13.73;7.23;;;;;;;4.29;74.01;99725.39;1458239;89;21408;-81
2022/04/10 02:33:37;;;;;;;14.13;7.80;;;;;;;4.25;74.25;99725.27;1455148;89;22013;-81
2022/04/10 02:36:06;;;;;;;15.03;7.70;;;;;;;4.21;74.21;99719.45;1451175;89;22101;-81
2022/04/10 02:38:33;;;;;;;15.83;8.90;;;;;;;4.17;73.82;99728.98;1455523;89;22094;-81
2022/04/10 02:40:59;;;;;;;12.20;7.00;;;;;;;4.19;73.74;99728.39;1438479;89;23166;-82
2022/04/10 02:43:26;;;;;;;12.13;7.67;;;;;;;4.14;73.23;99730.55;1432271;89;22099;-82
2022/04/10 02:45:53;;;;;;;13.53;6.47;;;;;;;4.17;73.56;99731.60;1456651;89;22186;-82
2022/04/10 02:48:20;;;;;;;15.33;6.27;;;;;;;4.13;73.05;99734.13;1460707;89;22130;-82
2022/04/10 02:50:47;;;;;;;15.67;6.47;;;;;;;4.10;72.51;99742.23;1460752;89;22241;-82
2022/04/10 02:53:14;;;;;;;11.90;6.63;;;;;;;4.14;72.47;99741.84;1432614;89;22087;-80
2022/04/10 02:55:41;;;;;;;9.47;5.67;;;;;;;4.11;72.26;99740.78;1464131;89;22104;-82
2022/04/10 02:58:08;;;;;;;16.53;6.57;;;;;;;4.14;71.87;99743.64;1457657;89;22059;-82
2022/04/10 03:00:35;;;;;;;9.97;6.33;;;;;;;4.19;72.59;99744.11;1460689;89;22123;-81
2022/04/10 03:03:02;;;;;;;12.80;6.63;;;;;;;4.18;72.57;99741.97;1457471;89;22238;-80
2022/04/10 03:05:29;;;;;;;11.77;6.07;;;;;;;4.15;72.69;99737.47;1463690;89;22958;-81
2022/04/10 03:07:56;;;;;;;9.37;5.20;;;;;;;4.16;72.48;99745.66;1458583;89;22087;-81
2022/04/10 03:10:23;;;;;;;22.53;7.27;;;;;;;4.15;72.27;99750.56;1454171;89;22074;-79
2022/04/10 03:12:50;;;;;;;9.67;6.33;;;;;;;4.17;72.65;99749.48;1451554;89;22852;-79
2022/04/10 03:15:17;;;;;;;12.87;5.97;;;;;;;4.17;71.92;99746.01;1457962;89;22031;-79
2022/04/10 03:17:43;;;;;;;10.20;6.47;;;;;;;4.16;72.14;99746.49;1462962;89;22053;-79
2022/04/10 03:20:12;;;;;;;14.63;6.43;;;;;;;4.14;72.60;99744.95;1454572;89;22354;-79
2022/04/10 03:22:40;;;;;;;8.83;5.37;;;;;;;4.14;72.41;99749.70;1455732;88;22248;-79
2022/04/10 03:25:09;;;;;;;12.17;6.00;;;;;;;4.12;72.91;99745.56;1454040;89;22125;-80
2022/04/10 03:27:36;;;;;;;11.10;5.73;;;;;;;4.16;72.46;99760.07;1461022;89;22053;-81
2022/04/10 03:30:05;;;;;;;17.63;6.47;;;;;;;4.10;72.32;99757.95;1456294;89;22030;-82
2022/04/10 03:32:31;;;;;;;8.93;5.40;;;;;;;4.15;72.84;99767.10;1455771;89;23026;-82
2022/04/10 03:34:58;;;;;;;11.77;6.33;;;;;;;4.12;72.66;99773.06;1450150;89;22046;-82
2022/04/10 03:37:25;;;;;;;13.17;7.13;;;;;;;4.16;72.75;99774.47;1456143;89;22083;-80
2022/04/10 03:39:52;;;;;;;12.37;6.83;;;;;;;4.13;72.45;99777.34;1463476;89;22093;-81
2022/04/10 03:42:19;;;;;;;8.90;6.17;;;;;;;4.06;72.43;99777.83;1455361;89;22343;-81
2022/04/10 03:44:46;;;;;;;9.20;5.13;;;;;;;4.07;72.65;99782.11;1456899;89;22103;-81
2022/04/10 03:47:13;;;;;;;15.73;7.03;;;;;;;4.11;72.50;99781.38;1463978;89;22104;-81
2022/04/10 03:49:39;;;;;;;11.87;6.47;;;;;;;4.14;72.69;99785.06;1435633;89;22996;-80
2022/04/10 03:52:07;;;;;;;16.37;6.00;;;;;;;4.11;72.83;99789.23;1450351;89;22134;-80
2022/04/10 03:54:34;;;;;;;15.20;6.33;;;;;;;4.18;72.67;99793.05;1450741;89;22199;-81
2022/04/10 03:57:01;;;;;;;11.37;5.67;;;;;;;4.12;72.69;99798.77;1450564;89;22124;-79
2022/04/10 03:59:28;;;;;;;12.17;5.63;;;;;;;4.17;72.41;99798.39;1458693;89;22998;-79
2022/04/10 04:01:55;;;;;;;15.50;6.17;;;;;;;4.16;72.42;99805.42;1425946;89;22104;-79
2022/04/10 04:04:22;;;;;;;9.50;6.00;;;;;;;4.17;72.20;99804.94;1456967;89;23210;-79
2022/04/10 04:06:49;;;;;;;11.50;5.43;;;;;;;4.24;72.39;99812.68;1453540;89;22118;-80
2022/04/10 04:09:16;;;;;;;9.70;5.97;;;;;;;4.25;71.91;99812.54;1458626;89;23064;-79
2022/04/10 04:11:43;;;;;;;16.37;7.20;;;;;;;4.23;72.00;99816.23;1452229;89;22089;-80
2022/04/10 04:14:11;;;;;;;12.07;5.53;;;;;;;4.30;71.85;99814.33;1451825;89;22080;-79
2022/04/10 04:16:38;;;;;;;11.40;6.00;;;;;;;4.29;71.53;99809.22;1452038;89;22023;-80
2022/04/10 04:19:05;;;;;;;12.70;6.13;;;;;;;4.34;72.10;99812.28;1457290;89;22134;-80
2022/04/10 04:21:32;;;;;;;9.13;5.70;;;;;;;4.38;71.42;99820.27;1459041;89;22075;-80
2022/04/10 04:23:59;;;;;;;10.00;5.83;;;;;;;4.41;70.72;99818.72;1462421;89;23166;-81
2022/04/10 04:26:26;;;;;;;11.60;5.67;;;;;;;4.45;70.54;99818.81;1467664;88;22100;-81
2022/04/10 04:28:53;;;;;;;14.47;6.50;;;;;;;4.47;69.97;99826.08;1439889;88;22026;-81
2022/04/10 04:31:19;;;;;;;12.93;6.20;;;;;;;4.51;69.53;99827.97;1474472;88;22059;-81
2022/04/10 04:33:46;;;;;;;12.33;6.07;;;;;;;4.59;69.84;99829.98;1469492;88;24000;-81
2022/04/10 04:36:13;;;;;;;12.27;5.87;;;;;;;4.58;69.65;99836.19;1473285;88;22559;-81
2022/04/10 04:38:40;;;;;;;14.73;5.87;;;;;;;4.63;69.72;99828.77;1473962;88;23982;-79
2022/04/10 04:41:10;;;;;;;11.03;5.77;;;;;;;4.59;69.39;99837.84;1453357;88;22183;-80
2022/04/10 04:43:36;;;;;;;12.57;6.30;;;;;;;4.61;69.12;99829.39;1478086;87;22350;-81
2022/04/10 04:46:03;;;;;;;10.83;5.63;;;;;;;4.63;69.52;99831.39;1467586;88;22093;-81
2022/04/10 04:48:30;;;;;;;10.83;5.13;;;;;;;4.70;69.44;99832.57;1476942;88;22172;-80
2022/04/10 04:50:57;;;;;;;12.47;5.83;;;;;;;4.65;68.98;99838.17;1473431;88;22084;-80
2022/04/10 04:53:24;;;;;;;12.17;5.20;;;;;;;4.66;68.80;99835.06;1472315;88;22100;-80
2022/04/10 04:55:50;;;;;;;10.93;5.73;;;;;;;4.68;69.41;99846.27;1475623;88;22003;-80
2022/04/10 04:58:19;;;;;;;9.07;5.50;;;;;;;4.69;68.61;99850.55;1471238;88;22055;-79
2022/04/10 05:00:47;;;;;;;13.17;6.60;;;;;;;4.76;69.03;99850.42;1474225;87;23133;-79
2022/04/10 05:03:17;;;;;;;9.30;5.90;;;;;;;4.76;69.03;99850.42;1441480;88;21428;-79
2022/04/10 05:05:44;;;;;;;10.53;5.17;;;;;;;4.81;68.96;99850.88;1472423;88;21398;-79
2022/04/10 05:08:11;;;;;;;14.73;5.93;;;;;;;4.83;68.27;99852.88;1480169;88;21420;-78
2022/04/10 05:10:38;;;;;;;11.03;5.40;;;;;;;4.81;68.12;99850.88;1468521;88;21383;-79
2022/04/10 05:13:08;;;;;;;9.97;4.93;;;;;;;4.81;68.12;99850.88;1482494;88;21340;-78
2022/04/10 05:15:35;;;;;;;;;;;;;;;4.89;68.96;99862.04;1474113;88;21384;-80
2022/04/10 05:18:03;;;;;;;8.57;4.53;;;;;;;4.85;68.86;99865.40;1476245;88;20283;-80
2022/04/10 05:20:30;;;;;;;10.03;5.17;;;;;;;4.87;67.83;99876.60;1476456;88;23133;-79
2022/04/10 05:22:56;;;;;;;8.33;4.47;;;;;;;4.91;68.80;99878.49;1454959;88;22541;-79
2022/04/10 05:25:23;;;;;;;9.20;5.00;;;;;;;4.96;68.89;99867.98;1474091;88;22143;-79
2022/04/10 05:27:50;;;;;;;7.30;4.40;;;;;;;4.90;67.77;99855.38;1474656;88;21516;-79
2022/04/10 05:30:18;;;;;;;7.27;4.07;;;;;;;4.90;67.77;99855.38;1476056;88;21435;-79
2022/04/10 05:32:45;;;;;;;10.27;5.43;;;;;;;4.88;67.64;99840.23;1473376;88;21427;-79
2022/04/10 05:35:13;;;;;;;9.67;4.53;;;;;;;5.03;68.31;99854.36;1470853;88;21413;-82
2022/04/10 05:37:40;;;;;;;9.03;4.73;;;;;;;5.02;68.34;99857.95;1471591;88;21332;-81
2022/04/10 05:40:09;;;;;;;10.17;4.93;;;;;;;5.12;68.33;99854.91;1450022;88;22367;-82
2022/04/10 05:42:46;;;;;;;8.77;4.90;;;;;;;5.12;68.33;99854.91;1462304;88;21428;-81
2022/04/10 05:45:13;;;;;;;9.93;4.83;;;;;;;5.11;67.38;99848.84;1463420;88;21758;-81
2022/04/10 05:47:42;;;;;;;10.07;5.00;;;;;;;5.11;68.36;99854.08;1440792;89;22329;-83
2022/04/10 05:50:11;;;;;;;10.83;5.40;;;;;;;5.12;67.51;99864.09;1460701;89;21434;-81
2022/04/10 05:52:41;;;;;;;6.93;4.00;;;;;;;5.20;68.49;99861.67;1468092;89;21310;-82
2022/04/10 05:55:10;;;;;;;8.78;5.03;;;;;;;5.16;67.42;99862.90;1462858;89;21368;-81
2022/04/10 05:57:37;;;;;;;12.30;5.53;;;;;;;5.19;67.84;99867.41;1467172;89;21404;-82
2022/04/10 06:00:08;;;;;;;9.47;5.00;;;;;;;5.20;67.24;99870.37;1464835;89;21493;-82
2022/04/10 06:02:35;;;;;;;12.10;4.47;;;;;;;5.23;67.14;99874.53;1467138;89;21338;-80
2022/04/10 06:05:02;;;;;;;11.07;4.97;;;;;;;5.23;66.85;99882.41;1465523;89;21480;-80
2022/04/10 06:07:29;;;;;;;7.70;4.87;;;;;;;5.20;66.59;99882.66;1470285;89;22366;-80
2022/04/10 06:09:56;;;;;;;10.73;4.87;;;;;;;5.20;66.05;99888.73;1467742;89;21347;-80
2022/04/10 06:12:23;;;;;;;10.70;5.50;;;;;;;5.27;66.73;99889.08;1465443;89;22263;-81
2022/04/10 06:14:50;;;;;;;9.60;5.13;;;;;;;5.34;67.28;99900.72;1462643;89;21406;-81
2022/04/10 06:17:18;;;;;;;6.50;3.57;;;;;;;5.28;65.80;99889.42;1459728;89;21428;-82
2022/04/10 06:19:45;;;;;;;9.03;5.30;;;;;;;5.22;66.28;99887.31;1464233;89;21412;-81
2022/04/10 06:22:14;;;;;;;16.07;5.73;;;;;;;5.32;66.75;99890.00;1462920;88;22344;-82
2022/04/10 06:24:41;;;;;;;11.20;5.07;;;;;;;5.28;66.26;99906.97;1466411;89;21427;-82
2022/04/10 06:27:08;;;;;;;8.67;4.13;;;;;;;5.39;66.72;99893.80;1461787;89;21531;-81
2022/04/10 06:29:35;;;;;;;9.17;4.83;;;;;;;5.54;66.68;99917.93;1462787;89;21567;-81
2022/04/10 06:32:03;;;;;;;7.20;3.80;;;;;;;5.48;66.20;99921.06;1446054;89;21358;-81
2022/04/10 06:34:30;;;;;;;8.83;4.60;;;;;;;5.55;66.36;99915.64;1452675;89;21424;-82
2022/04/10 06:36:57;;;;;;;8.87;4.70;;;;;;;5.60;65.96;99921.35;1449249;89;21400;-81
2022/04/10 06:39:24;;;;;;;12.77;4.60;;;;;;;5.62;65.92;99919.44;1450083;89;21432;-81
2022/04/10 06:41:51;;;;;;;8.97;3.70;;;;;;;5.69;66.64;99924.52;1409256;92;21397;-81
2022/04/10 06:44:18;;;;;;;11.07;4.97;;;;;;;5.68;64.67;99929.42;1450593;90;22267;-81
2022/04/10 06:46:45;;;;;;;8.67;4.00;;;;;;;5.80;64.71;99925.76;1412985;91;21309;-80
2022/04/10 06:49:13;;;;;;;10.73;5.03;;;;;;;5.87;64.60;99924.30;1447280;90;21394;-79
2022/04/10 06:51:41;;;;;;;8.07;4.90;;;;;;;6.20;65.82;99932.92;1419186;92;21456;-81
2022/04/10 06:54:08;;;;;;;13.83;5.23;;;;;;;6.24;62.76;99933.02;1439928;90;21498;-79
2022/04/10 06:56:35;;;;;;;8.67;4.50;;;;;;;6.31;63.74;99939.41;1456570;89;21403;-81
2022/04/10 06:59:02;;;;;;;13.53;4.73;;;;;;;6.43;63.79;99945.88;1463268;89;21372;-80
2022/04/10 07:01:29;;;;;;;8.97;5.40;;;;;;;6.49;63.14;99947.97;1467994;89;21401;-81
2022/04/10 07:03:58;;;;;;;11.13;5.27;;;;;;;6.62;64.16;99939.84;1460589;89;21380;-81
2022/04/10 07:06:25;;;;;;;7.50;5.27;;;;;;;6.71;63.92;99950.41;1461054;89;22347;-81
2022/04/10 07:08:52;;;;;;;10.90;4.50;;;;;;;6.80;62.65;99949.25;1462248;89;21460;-81
2022/04/10 07:11:19;;;;;;;14.10;5.07;;;;;;;6.79;63.38;99948.42;1444959;89;21365;-80
2022/04/10 07:13:46;;;;;;;6.83;4.93;;;;;;;6.90;62.79;99960.12;1412452;92;21324;-79
2022/04/10 07:16:13;;;;;;;9.63;4.77;;;;;;;6.83;61.36;99955.55;1462745;89;21310;-80
2022/04/10 07:18:39;;;;;;;11.20;4.83;;;;;;;6.97;62.38;99968.33;1455631;89;21347;-81
2022/04/10 07:21:07;;;;;;;10.13;4.27;;;;;;;7.03;62.38;99962.52;1463252;88;21466;-81
2022/04/10 07:23:43;;;;;;;8.17;4.57;;;;;;;7.14;59.97;99965.03;1469019;89;21406;-81
2022/04/10 07:26:13;;;;;;;10.57;4.73;;;;;;;7.23;61.29;99973.91;1438322;89;21431;-81
2022/04/10 07:28:41;;;;;;;7.67;3.97;;;;;;;7.17;60.91;99973.97;1415280;92;21257;-81
2022/04/10 07:31:09;;;;;;;7.57;4.40;;;;;;;7.22;61.25;99974.39;1467633;89;21398;-81
2022/04/10 07:33:37;;;;;;;9.37;4.37;;;;;;;7.33;61.49;99979.98;1467399;88;21288;-81
2022/04/10 07:36:04;;;;;;;11.20;5.23;;;;;;;7.39;60.88;99985.19;1458523;89;21404;-81
2022/04/10 07:38:32;;;;;;;12.23;5.47;;;;;;;7.64;62.71;99978.05;1461991;89;21548;-81
2022/04/10 07:40:59;;;;;;;10.17;5.27;;;;;;;7.79;62.16;99980.27;1470168;88;22456;-81
2022/04/10 07:43:26;;;;;;;6.90;3.27;;;;;;;7.66;59.12;99977.93;1459633;89;21458;-82
2022/04/10 07:48:39;;;;;;;5.87;3.17;;;;;;;7.58;59.69;99995.73;1464104;89;21340;-81
2022/04/10 07:51:07;;;;;;;9.80;5.77;;;;;;;7.71;58.35;99991.52;1470597;89;21539;-81
2022/04/10 07:53:34;;;;;;;6.30;3.80;;;;;;;7.82;59.60;99993.98;1464334;89;21384;-82
2022/04/10 07:56:01;;;;;;;8.80;4.63;;;;;;;7.61;59.11;100002.53;1466329;89;21421;-80
2022/04/10 07:58:28;;;;;;;10.10;4.13;;;;;;;7.76;60.00;100004.25;1461676;89;22270;-80
2022/04/10 08:01:00;;;;;;;7.97;4.50;;;;;;;7.90;57.91;100006.45;1464761;89;21445;-94
2022/04/10 08:03:27;;;;;;;9.20;4.12;;;;;;;7.83;56.85;100010.64;1458012;88;21392;-94
2022/04/10 08:05:54;;;;;;;8.40;3.93;;;;;;;7.86;57.93;100010.36;1475125;89;21377;-92
2022/04/10 08:08:21;;;;;;;10.70;4.53;;;;;;;7.96;58.86;100012.48;1465703;88;21361;-94
2022/04/10 08:10:48;;;;;;;11.37;4.70;;;;;;;8.10;58.00;100016.48;1459314;88;21405;-94
2022/04/10 08:13:18;;;;;;;7.20;4.50;;;;;;;8.29;60.36;100026.17;1455685;89;22762;-91
2022/04/10 08:15:46;;;;;;;10.23;5.23;;;;;;;8.43;59.61;100024.43;1469500;89;21472;-87
2022/04/10 08:18:13;;;;;;;9.83;4.70;;;;;;;8.29;58.92;100025.68;1461518;89;22074;-86
2022/04/10 08:20:40;;;;;;;7.13;3.90;;;;;;;8.30;59.03;100026.51;1444380;89;21378;-85
2022/04/10 08:23:08;;;;;;;8.60;3.73;;;;;;;8.53;58.29;100027.85;1462557;89;22300;-86
2022/04/10 08:25:35;;;;;;;5.10;3.20;;;;;;;8.73;59.58;100034.38;1469687;89;21415;-86
2022/04/10 08:28:03;;;;;;;7.17;3.57;;;;;;;8.57;56.29;100038.94;1457227;88;21509;-84
2022/04/10 08:30:30;;;;;;;12.20;6.03;;;;;;;8.73;55.84;100038.34;1454082;89;21481;-90
2022/04/10 08:32:59;;;;;;;17.57;5.57;;;;;;;8.74;57.16;100024.98;1444036;89;21356;-89
2022/04/10 08:35:26;;;;;;;9.63;5.13;;;;;;;8.89;58.43;100038.56;1450051;89;21311;-89
2022/04/10 08:37:54;;;;;;;6.37;4.20;;;;;;;9.08;57.34;100042.89;1445213;89;21429;-86
2022/04/10 08:40:21;;;;;;;8.10;4.33;;;;;;;9.17;58.24;100039.36;1456899;89;21890;-88
2022/04/10 08:42:48;;;;;;;8.07;3.60;;;;;;;8.99;56.95;100053.84;1451991;89;21422;-90
2022/04/10 08:45:18;;;;;;;6.13;3.97;;;;;;;8.98;57.90;100045.59;1448478;89;21438;-90
2022/04/10 08:47:45;;;;;;;10.07;5.53;;;;;;;8.75;56.40;100049.09;1390322;93;21483;-92
2022/04/10 08:50:12;;;;;;;9.30;4.93;;;;;;;8.54;56.40;100050.60;1390611;93;22385;-90
2022/04/10 08:52:39;;;;;;;6.13;4.23;;;;;;;8.68;58.18;100053.77;1419049;91;21345;-89
2022/04/10 08:55:10;;;;;;;10.63;5.00;;;;;;;8.54;55.42;100061.16;1385038;93;22532;-92
2022/04/10 08:57:37;;;;;;;9.08;3.98;;;;;;;8.87;57.78;100055.02;1374779;94;21425;-89
2022/04/10 09:00:07;;;;;;;8.27;4.70;;;;;;;8.88;55.86;100060.63;1428154;91;21476;-88
2022/04/10 09:02:53;;;;;;;10.65;5.97;;;;;;;9.24;57.15;100060.25;1396546;93;21358;-90
2022/04/10 09:05:24;;;;;;;9.90;4.67;;;;;;;9.43;56.65;100065.88;1370628;94;22187;-90
2022/04/10 09:08:13;;;;;;;8.20;4.27;;;;;;;9.32;54.68;100063.48;1388802;93;21920;-91
2022/04/10 09:11:06;;;;;;;6.67;3.97;;;;;;;9.23;55.53;100068.30;1426722;91;21469;-92
2022/04/10 09:13:40;;;;;;;7.10;3.47;;;;;;;9.60;55.80;100073.49;1392017;93;22348;-92
2022/04/10 09:16:14;;;;;;;6.47;3.90;;;;;;;9.70;53.76;100078.72;1395489;93;21276;-93
2022/04/10 09:19:00;;;;;;;6.50;3.73;;;;;;;9.35;52.78;100073.75;1397848;93;21506;-90
2022/04/10 09:21:33;;;;;;;10.57;4.63;;;;;;;9.35;54.23;100075.06;1387822;93;22326;-91
2022/04/10 09:24:07;;;;;;;3.90;2.67;;;;;;;9.37;52.67;100066.48;1388370;93;21431;-91
2022/04/10 09:26:47;;;;;;;4.87;3.17;;;;;;;9.17;52.19;100075.49;1397483;93;22023;-91
2022/04/10 09:29:19;;;;;;;6.40;4.17;;;;;;;9.35;50.64;100073.75;1419223;91;22139;-90
2022/04/10 09:31:49;;;;;;;17.90;9.53;;;;;;;9.36;52.58;100060.87;1412437;92;21412;-93
2022/04/10 09:34:22;;;;;;;5.62;3.27;;;;;;;9.69;52.48;100066.47;1420453;92;21427;-92
2022/04/10 09:37:03;;;;;;;4.20;2.63;;;;;;;9.83;51.88;100064.63;1419578;92;21375;-93
2022/04/10 09:39:35;;;;;;;10.70;4.53;;;;;;;9.95;50.10;100069.19;1431247;89;21341;-91
2022/04/10 09:42:08;;;;;;;5.60;2.83;;;;;;;10.11;52.52;100082.55;1433404;89;21426;-90
2022/04/10 09:44:39;;;;;;;11.77;5.30;;;;;;;10.20;51.06;100083.94;1437870;89;22484;-93
2022/04/10 09:47:10;;;;;;;8.43;5.70;;;;;;;10.53;51.47;100074.44;1423719;89;23717;-93
2022/04/10 09:49:40;;;;;;;6.15;3.30;;;;;;;11.04;50.37;100068.75;1474616;90;21613;-92
2022/04/10 09:52:14;;;;;;;5.87;2.95;;;;;;;10.99;48.12;100080.31;1445400;89;21382;-90
2022/04/10 09:54:50;;;;;;;6.67;3.33;;;;;;;10.70;47.71;100080.66;1445716;89;22342;-93
2022/04/10 09:57:20;;;;;;;6.03;2.97;;;;;;;10.80;50.49;100082.22;1419706;90;22666;-91
2022/04/10 09:59:52;;;;;;;6.43;2.87;;;;;;;10.96;47.91;100076.66;1418010;92;21531;-92
2022/04/10 10:02:21;;;;;;;6.97;3.80;;;;;;;10.55;46.74;100081.23;1440441;89;22336;-90
2022/04/10 10:04:49;;;;;;;4.50;3.00;;;;;;;10.20;48.52;100089.23;1420323;90;23353;-92
2022/04/10 10:07:19;;;;;;;6.07;2.67;;;;;;;10.38;48.74;100088.23;1431662;89;21489;-91
2022/04/10 10:09:49;;;;;;;15.75;7.60;;;;;;;10.16;48.25;100088.72;1436133;89;21465;-95
2022/04/10 10:12:17;;;;;;;5.77;2.40;;;;;;;10.61;51.37;100083.25;1441968;89;22296;-90
2022/04/10 10:14:51;;;;;;;3.97;2.60;;;;;;;10.75;47.82;100087.64;1441259;89;21509;-91
2022/04/10 10:17:25;;;;;;;3.93;2.97;;;;;;;10.86;46.67;100098.47;1441920;89;21421;-94
2022/04/10 10:19:53;;;;;;;3.60;2.13;;;;;;;10.60;46.07;100082.10;1429066;92;21368;-89
2022/04/10 10:22:21;;;;;;;4.63;2.33;;;;;;;10.49;46.52;100078.39;1406723;92;21442;-94
2022/04/10 10:25:07;;;;;;;3.33;2.10;;;;;;;10.71;47.98;100087.13;1425298;89;21471;-92
2022/04/10 10:28:09;;;;;;;5.73;3.00;;;;;;;10.43;43.73;100090.92;1439201;89;21436;-91
2022/04/10 10:31:34;;;;;;;5.10;2.40;;;;;;;10.36;45.72;100088.08;1407749;90;21576;-90
2022/04/10 10:34:08;;;;;;;3.77;2.03;;;;;;;10.50;46.37;100081.36;1427678;89;21451;-91
2022/04/10 10:36:38;;;;;;;6.30;3.23;;;;;;;10.97;43.52;100082.31;1437441;89;21404;-96
2022/04/10 10:39:07;;;;;;;6.83;3.27;;;;;;;11.23;45.78;100079.59;1432170;90;21457;-91
2022/04/10 10:42:24;;;;;;;5.33;2.33;;;;;;;11.39;45.79;100084.11;1427995;90;21398;-91
2022/04/10 10:44:51;;;;;;;8.27;3.07;;;;;;;11.43;46.32;100092.08;1499393;89;22317;-91
2022/04/10 10:47:29;;;;;;;4.80;2.67;;;;;;;10.89;44.53;100096.83;1430931;90;21380;-88
2022/04/10 10:49:55;;;;;;;4.43;2.40;;;;;;;10.96;43.57;100074.86;1358521;90;21486;-90
2022/04/10 10:52:24;;;;;;;3.93;2.33;;;;;;;11.46;47.48;100084.63;1428193;90;21861;-90
2022/04/10 10:54:58;;;;;;;8.77;3.47;;;;;;;11.44;44.51;100087.11;1426980;91;22375;-89
2022/04/10 10:57:41;;;;;;;4.87;2.33;;;;;;;11.79;43.97;100083.36;1410502;92;21454;-89
2022/04/10 11:00:19;;;;;;;4.40;1.87;;;;;;;12.13;42.73;100075.30;1441387;90;21353;-91
2022/04/10 11:02:53;;;;;;;3.13;1.60;;;;;;;12.06;42.08;100082.77;1447696;90;21419;-93
2022/04/10 11:05:32;;;;;;;6.73;2.80;;;;;;;11.74;41.07;100076.42;1430594;91;22862;-86
2022/04/10 11:08:04;;;;;;;4.83;2.60;;;;;;;12.07;42.97;100077.79;1431004;90;21441;-86
2022/04/10 11:10:36;;;;;;;2.57;1.97;;;;;;;12.03;43.17;100069.34;1425079;90;21413;-87
2022/04/10 11:13:08;;;;;;;3.43;2.33;;;;;;;12.05;42.87;100072.64;1425376;91;21590;-88
2022/04/10 11:15:54;;;;;;;5.93;2.80;;;;;;;12.41;39.27;100064.34;1431525;91;21464;-86
2022/04/10 11:18:32;;;;;;;4.70;2.67;;;;;;;12.35;41.45;100071.14;1429221;90;22306;-86
2022/04/10 11:21:11;;;;;;;4.33;2.03;;;;;;;12.51;43.31;100060.98;1429978;91;21390;-85
2022/04/10 11:23:40;;;;;;;5.60;2.83;;;;;;;11.81;42.02;100064.66;1511691;90;21257;-86
2022/04/10 11:26:22;;;;;;;3.50;2.33;;;;;;;11.77;41.72;100069.93;1363377;90;21273;-85
2022/04/10 11:29:05;;;;;;;4.40;2.30;;;;;;;11.90;43.19;100069.81;1398614;91;21345;-87
2022/04/10 11:31:40;;;;;;;5.00;2.37;;;;;;;12.08;42.61;100069.65;1490035;90;21398;-86
2022/04/10 11:34:28;;;;;;;4.27;2.00;;;;;;;11.45;42.51;100069.73;1515606;91;21265;-88
2022/04/10 11:37:03;;;;;;;5.50;1.90;;;;;;;11.23;41.49;100068.50;1515492;91;21302;-92
2022/04/10 11:39:35;;;;;;;10.87;2.47;;;;;;;11.11;42.36;100080.38;1507409;91;21962;-88
2022/04/10 11:42:08;;;;;;;3.10;2.03;;;;;;;10.81;42.22;100075.92;1519392;89;21198;-88
2022/04/10 11:44:38;;;;;;;6.20;2.63;;;;;;;11.17;43.09;100074.95;1516755;91;21323;-88
2022/04/10 11:47:08;;;;;;;5.28;2.25;;;;;;;11.49;40.98;100069.58;1360763;91;21309;-90